sensor_id;sensor_type;location;lat;lon;timestamp;P1;durP1;ratioP1;P2;durP2;ratioP2
9447;SDS011;4762;48.128;11.376;2023-11-18T00:01:52;7.60;;;4.13;;
9447;SDS011;4762;48.128;11.376;2023-11-18T00:03:54;5.23;;;4.53;;
9447;SDS011;4762;48.128;11.376;2023-11-18T00:05:56;6.90;;;4.67;;
9447;SDS011;4762;48.128;11.376;2023-11-18T00:07:58;5.50;;;4.47;;
9447;SDS011;4762;48.128;11.376;2023-11-18T00:10:00;5.20;;;3.67;;
9447;SDS011;4762;48.128;11.376;2023-11-18T00:12:03;7.37;;;4.20;;
9447;SDS011;4762;48.128;11.376;2023-11-18T00:14:06;5.87;;;3.63;;
9447;SDS011;4762;48.128;11.376;2023-11-18T00:16:08;4.13;;;2.93;;
9447;SDS011;4762;48.128;11.376;2023-11-18T00:18:14;6.53;;;3.63;;
9447;SDS011;4762;48.128;11.376;2023-11-18T00:20:16;4.87;;;3.03;;
9447;SDS011;4762;48.128;11.376;2023-11-18T00:22:19;3.83;;;2.83;;
9447;SDS011;4762;48.128;11.376;2023-11-18T00:24:21;3.60;;;3.10;;
9447;SDS011;4762;48.128;11.376;2023-11-18T00:26:23;3.50;;;2.97;;
9447;SDS011;4762;48.128;11.376;2023-11-18T00:28:26;2.80;;;2.07;;
9447;SDS011;4762;48.128;11.376;2023-11-18T00:30:28;2.60;;;2.20;;
9447;SDS011;4762;48.128;11.376;2023-11-18T00:32:31;4.37;;;2.90;;
9447;SDS011;4762;48.128;11.376;2023-11-18T00:34:32;2.30;;;2.00;;
9447;SDS011;4762;48.128;11.376;2023-11-18T00:36:35;2.87;;;2.30;;
9447;SDS011;4762;48.128;11.376;2023-11-18T00:38:37;3.13;;;2.83;;
9447;SDS011;4762;48.128;11.376;2023-11-18T00:40:39;2.30;;;2.10;;
9447;SDS011;4762;48.128;11.376;2023-11-18T00:42:42;2.50;;;2.30;;
9447;SDS011;4762;48.128;11.376;2023-11-18T00:44:44;3.17;;;2.23;;
9447;SDS011;4762;48.128;11.376;2023-11-18T00:46:46;2.73;;;2.47;;
9447;SDS011;4762;48.128;11.376;2023-11-18T00:48:48;2.30;;;2.10;;
9447;SDS011;4762;48.128;11.376;2023-11-18T00:50:50;3.50;;;2.23;;
9447;SDS011;4762;48.128;11.376;2023-11-18T00:52:52;2.60;;;2.00;;
9447;SDS011;4762;48.128;11.376;2023-11-18T00:54:55;3.03;;;2.13;;
9447;SDS011;4762;48.128;11.376;2023-11-18T00:56:57;2.90;;;2.30;;
9447;SDS011;4762;48.128;11.376;2023-11-18T00:59:00;2.80;;;2.10;;
9447;SDS011;4762;48.128;11.376;2023-11-18T01:01:02;1.50;;;1.40;;
9447;SDS011;4762;48.128;11.376;2023-11-18T01:03:04;3.50;;;2.20;;
9447;SDS011;4762;48.128;11.376;2023-11-18T01:05:07;2.73;;;2.13;;
9447;SDS011;4762;48.128;11.376;2023-11-18T01:07:10;2.70;;;2.30;;
9447;SDS011;4762;48.128;11.376;2023-11-18T01:09:12;2.50;;;1.50;;
9447;SDS011;4762;48.128;11.376;2023-11-18T01:11:15;2.03;;;1.63;;
9447;SDS011;4762;48.128;11.376;2023-11-18T01:13:17;3.00;;;2.10;;
9447;SDS011;4762;48.128;11.376;2023-11-18T01:15:19;1.40;;;1.20;;
9447;SDS011;4762;48.128;11.376;2023-11-18T01:17:22;2.00;;;1.80;;
9447;SDS011;4762;48.128;11.376;2023-11-18T01:19:24;2.60;;;2.40;;
9447;SDS011;4762;48.128;11.376;2023-11-18T01:21:26;1.73;;;1.30;;
9447;SDS011;4762;48.128;11.376;2023-11-18T01:23:28;3.10;;;2.27;;
9447;SDS011;4762;48.128;11.376;2023-11-18T01:25:30;2.17;;;1.47;;
9447;SDS011;4762;48.128;11.376;2023-11-18T01:27:33;1.90;;;1.67;;
9447;SDS011;4762;48.128;11.376;2023-11-18T01:29:35;2.33;;;1.90;;
9447;SDS011;4762;48.128;11.376;2023-11-18T01:31:38;3.10;;;2.10;;
9447;SDS011;4762;48.128;11.376;2023-11-18T01:33:40;3.60;;;2.13;;
9447;SDS011;4762;48.128;11.376;2023-11-18T01:35:43;2.90;;;1.80;;
9447;SDS011;4762;48.128;11.376;2023-11-18T01:37:45;2.20;;;2.00;;
9447;SDS011;4762;48.128;11.376;2023-11-18T01:39:47;2.47;;;1.90;;
9447;SDS011;4762;48.128;11.376;2023-11-18T01:41:50;2.20;;;2.00;;
9447;SDS011;4762;48.128;11.376;2023-11-18T01:43:52;3.17;;;1.97;;
9447;SDS011;4762;48.128;11.376;2023-11-18T01:45:54;1.80;;;1.63;;
9447;SDS011;4762;48.128;11.376;2023-11-18T01:47:56;2.77;;;2.20;;
9447;SDS011;4762;48.128;11.376;2023-11-18T01:49:59;3.27;;;2.13;;
9447;SDS011;4762;48.128;11.376;2023-11-18T01:52:01;2.10;;;1.90;;
9447;SDS011;4762;48.128;11.376;2023-11-18T01:54:03;2.27;;;2.00;;
9447;SDS011;4762;48.128;11.376;2023-11-18T01:56:05;3.13;;;2.53;;
9447;SDS011;4762;48.128;11.376;2023-11-18T01:58:08;2.57;;;2.23;;
9447;SDS011;4762;48.128;11.376;2023-11-18T02:00:10;3.00;;;2.13;;
9447;SDS011;4762;48.128;11.376;2023-11-18T02:02:13;2.90;;;2.13;;
9447;SDS011;4762;48.128;11.376;2023-11-18T02:04:15;3.90;;;2.60;;
9447;SDS011;4762;48.128;11.376;2023-11-18T02:06:17;3.00;;;2.00;;
9447;SDS011;4762;48.128;11.376;2023-11-18T02:08:19;2.40;;;2.20;;
9447;SDS011;4762;48.128;11.376;2023-11-18T02:10:22;2.67;;;2.37;;
9447;SDS011;4762;48.128;11.376;2023-11-18T02:12:27;2.67;;;2.43;;
9447;SDS011;4762;48.128;11.376;2023-11-18T02:14:28;2.17;;;1.80;;
9447;SDS011;4762;48.128;11.376;2023-11-18T02:16:31;2.50;;;1.73;;
9447;SDS011;4762;48.128;11.376;2023-11-18T02:18:32;2.13;;;1.93;;
9447;SDS011;4762;48.128;11.376;2023-11-18T02:20:35;2.63;;;1.93;;
9447;SDS011;4762;48.128;11.376;2023-11-18T02:22:38;1.53;;;1.30;;
9447;SDS011;4762;48.128;11.376;2023-11-18T02:24:40;3.47;;;2.40;;
9447;SDS011;4762;48.128;11.376;2023-11-18T02:26:42;2.50;;;2.30;;
9447;SDS011;4762;48.128;11.376;2023-11-18T02:28:44;2.20;;;2.00;;
9447;SDS011;4762;48.128;11.376;2023-11-18T02:30:47;5.73;;;2.70;;
9447;SDS011;4762;48.128;11.376;2023-11-18T02:32:59;3.77;;;2.70;;
9447;SDS011;4762;48.128;11.376;2023-11-18T02:35:08;3.03;;;2.03;;
9447;SDS011;4762;48.128;11.376;2023-11-18T02:37:14;2.73;;;2.27;;
9447;SDS011;4762;48.128;11.376;2023-11-18T02:39:21;2.77;;;1.97;;
9447;SDS011;4762;48.128;11.376;2023-11-18T02:41:22;2.73;;;2.33;;
9447;SDS011;4762;48.128;11.376;2023-11-18T02:43:25;6.27;;;3.10;;
9447;SDS011;4762;48.128;11.376;2023-11-18T02:45:27;2.77;;;1.97;;
9447;SDS011;4762;48.128;11.376;2023-11-18T02:47:29;3.17;;;2.60;;
9447;SDS011;4762;48.128;11.376;2023-11-18T02:49:31;2.17;;;1.90;;
9447;SDS011;4762;48.128;11.376;2023-11-18T02:51:33;2.70;;;2.50;;
9447;SDS011;4762;48.128;11.376;2023-11-18T02:53:36;2.90;;;2.00;;
9447;SDS011;4762;48.128;11.376;2023-11-18T02:55:39;3.37;;;2.37;;
9447;SDS011;4762;48.128;11.376;2023-11-18T02:57:41;4.37;;;3.17;;
9447;SDS011;4762;48.128;11.376;2023-11-18T02:59:43;6.30;;;2.70;;
9447;SDS011;4762;48.128;11.376;2023-11-18T03:01:45;3.73;;;2.77;;
9447;SDS011;4762;48.128;11.376;2023-11-18T03:03:47;4.00;;;2.67;;
9447;SDS011;4762;48.128;11.376;2023-11-18T03:05:50;4.03;;;3.30;;
9447;SDS011;4762;48.128;11.376;2023-11-18T03:07:52;4.30;;;2.60;;
9447;SDS011;4762;48.128;11.376;2023-11-18T03:09:54;3.33;;;2.27;;
9447;SDS011;4762;48.128;11.376;2023-11-18T03:11:57;3.03;;;2.37;;
9447;SDS011;4762;48.128;11.376;2023-11-18T03:13:59;3.50;;;2.33;;
9447;SDS011;4762;48.128;11.376;2023-11-18T03:16:02;5.87;;;2.70;;
9447;SDS011;4762;48.128;11.376;2023-11-18T03:18:04;3.47;;;2.60;;
9447;SDS011;4762;48.128;11.376;2023-11-18T03:20:07;3.10;;;2.80;;
9447;SDS011;4762;48.128;11.376;2023-11-18T03:22:09;3.80;;;2.37;;
9447;SDS011;4762;48.128;11.376;2023-11-18T03:24:11;2.67;;;2.47;;
9447;SDS011;4762;48.128;11.376;2023-11-18T03:26:14;4.10;;;2.60;;
9447;SDS011;4762;48.128;11.376;2023-11-18T03:28:16;5.40;;;3.60;;
9447;SDS011;4762;48.128;11.376;2023-11-18T03:30:18;3.60;;;2.60;;
9447;SDS011;4762;48.128;11.376;2023-11-18T03:32:20;6.63;;;3.47;;
9447;SDS011;4762;48.128;11.376;2023-11-18T03:34:22;3.60;;;2.80;;
9447;SDS011;4762;48.128;11.376;2023-11-18T03:36:25;4.73;;;3.57;;
9447;SDS011;4762;48.128;11.376;2023-11-18T03:38:27;4.07;;;3.00;;
9447;SDS011;4762;48.128;11.376;2023-11-18T03:40:29;6.13;;;4.17;;
9447;SDS011;4762;48.128;11.376;2023-11-18T03:42:31;5.40;;;3.23;;
9447;SDS011;4762;48.128;11.376;2023-11-18T03:44:33;3.73;;;3.33;;
9447;SDS011;4762;48.128;11.376;2023-11-18T03:46:36;4.60;;;3.80;;
9447;SDS011;4762;48.128;11.376;2023-11-18T03:48:38;6.60;;;3.17;;
9447;SDS011;4762;48.128;11.376;2023-11-18T03:50:40;4.07;;;2.53;;
9447;SDS011;4762;48.128;11.376;2023-11-18T03:52:42;5.30;;;4.03;;
9447;SDS011;4762;48.128;11.376;2023-11-18T03:54:44;3.60;;;3.30;;
9447;SDS011;4762;48.128;11.376;2023-11-18T03:56:47;4.90;;;3.50;;
9447;SDS011;4762;48.128;11.376;2023-11-18T03:58:49;5.50;;;4.17;;
9447;SDS011;4762;48.128;11.376;2023-11-18T04:00:51;3.83;;;3.43;;
9447;SDS011;4762;48.128;11.376;2023-11-18T04:02:53;9.47;;;3.70;;
9447;SDS011;4762;48.128;11.376;2023-11-18T04:04:55;6.77;;;4.07;;
9447;SDS011;4762;48.128;11.376;2023-11-18T04:06:58;3.97;;;3.33;;
9447;SDS011;4762;48.128;11.376;2023-11-18T04:09:00;7.30;;;4.50;;
9447;SDS011;4762;48.128;11.376;2023-11-18T04:11:02;4.90;;;4.03;;
9447;SDS011;4762;48.128;11.376;2023-11-18T04:13:04;5.60;;;3.30;;
9447;SDS011;4762;48.128;11.376;2023-11-18T04:15:07;4.03;;;3.23;;
9447;SDS011;4762;48.128;11.376;2023-11-18T04:17:09;5.53;;;3.40;;
9447;SDS011;4762;48.128;11.376;2023-11-18T04:19:11;5.40;;;3.73;;
9447;SDS011;4762;48.128;11.376;2023-11-18T04:21:14;6.10;;;4.03;;
9447;SDS011;4762;48.128;11.376;2023-11-18T04:23:16;5.83;;;3.90;;
9447;SDS011;4762;48.128;11.376;2023-11-18T04:25:18;6.73;;;3.50;;
9447;SDS011;4762;48.128;11.376;2023-11-18T04:27:20;4.23;;;3.47;;
9447;SDS011;4762;48.128;11.376;2023-11-18T04:29:22;7.43;;;3.93;;
9447;SDS011;4762;48.128;11.376;2023-11-18T04:31:25;5.37;;;4.23;;
9447;SDS011;4762;48.128;11.376;2023-11-18T04:33:27;5.33;;;3.53;;
9447;SDS011;4762;48.128;11.376;2023-11-18T04:35:29;3.27;;;2.97;;
9447;SDS011;4762;48.128;11.376;2023-11-18T04:37:31;8.00;;;2.90;;
9447;SDS011;4762;48.128;11.376;2023-11-18T04:39:33;5.13;;;3.83;;
9447;SDS011;4762;48.128;11.376;2023-11-18T04:41:36;5.00;;;3.37;;
9447;SDS011;4762;48.128;11.376;2023-11-18T04:43:38;5.17;;;4.10;;
9447;SDS011;4762;48.128;11.376;2023-11-18T04:45:42;6.10;;;3.90;;
9447;SDS011;4762;48.128;11.376;2023-11-18T04:47:44;5.63;;;3.57;;
9447;SDS011;4762;48.128;11.376;2023-11-18T04:49:46;4.37;;;3.30;;
9447;SDS011;4762;48.128;11.376;2023-11-18T04:51:48;7.00;;;3.87;;
9447;SDS011;4762;48.128;11.376;2023-11-18T04:53:50;4.33;;;3.40;;
9447;SDS011;4762;48.128;11.376;2023-11-18T04:55:52;5.10;;;3.70;;
9447;SDS011;4762;48.128;11.376;2023-11-18T04:57:55;4.23;;;2.90;;
9447;SDS011;4762;48.128;11.376;2023-11-18T04:59:58;3.87;;;3.27;;
9447;SDS011;4762;48.128;11.376;2023-11-18T05:02:00;4.00;;;3.10;;
9447;SDS011;4762;48.128;11.376;2023-11-18T05:04:02;5.23;;;3.80;;
9447;SDS011;4762;48.128;11.376;2023-11-18T05:06:05;7.20;;;4.27;;
9447;SDS011;4762;48.128;11.376;2023-11-18T05:08:08;5.70;;;3.43;;
9447;SDS011;4762;48.128;11.376;2023-11-18T05:10:10;4.93;;;3.00;;
9447;SDS011;4762;48.128;11.376;2023-11-18T05:12:12;4.80;;;3.43;;
9447;SDS011;4762;48.128;11.376;2023-11-18T05:14:14;5.13;;;4.33;;
9447;SDS011;4762;48.128;11.376;2023-11-18T05:16:16;11.30;;;3.97;;
9447;SDS011;4762;48.128;11.376;2023-11-18T05:18:19;4.87;;;3.47;;
9447;SDS011;4762;48.128;11.376;2023-11-18T05:20:21;8.23;;;4.20;;
9447;SDS011;4762;48.128;11.376;2023-11-18T05:22:23;4.03;;;3.27;;
9447;SDS011;4762;48.128;11.376;2023-11-18T05:24:26;5.40;;;3.90;;
9447;SDS011;4762;48.128;11.376;2023-11-18T05:26:28;3.50;;;3.20;;
9447;SDS011;4762;48.128;11.376;2023-11-18T05:28:31;5.10;;;3.73;;
9447;SDS011;4762;48.128;11.376;2023-11-18T05:30:33;4.43;;;4.00;;
9447;SDS011;4762;48.128;11.376;2023-11-18T05:32:35;3.63;;;3.20;;
9447;SDS011;4762;48.128;11.376;2023-11-18T05:34:37;4.70;;;3.50;;
9447;SDS011;4762;48.128;11.376;2023-11-18T05:36:39;4.97;;;3.50;;
9447;SDS011;4762;48.128;11.376;2023-11-18T05:38:42;6.67;;;3.80;;
9447;SDS011;4762;48.128;11.376;2023-11-18T05:40:44;4.70;;;3.37;;
9447;SDS011;4762;48.128;11.376;2023-11-18T05:42:47;9.17;;;4.20;;
9447;SDS011;4762;48.128;11.376;2023-11-18T05:44:48;5.43;;;4.40;;
9447;SDS011;4762;48.128;11.376;2023-11-18T05:46:50;4.13;;;3.40;;
9447;SDS011;4762;48.128;11.376;2023-11-18T05:48:53;10.20;;;3.90;;
9447;SDS011;4762;48.128;11.376;2023-11-18T05:50:55;5.67;;;3.27;;
9447;SDS011;4762;48.128;11.376;2023-11-18T05:52:57;3.90;;;3.33;;
9447;SDS011;4762;48.128;11.376;2023-11-18T05:54:59;6.80;;;3.17;;
9447;SDS011;4762;48.128;11.376;2023-11-18T05:57:01;7.60;;;3.70;;
9447;SDS011;4762;48.128;11.376;2023-11-18T05:59:04;5.13;;;3.53;;
9447;SDS011;4762;48.128;11.376;2023-11-18T06:01:06;5.60;;;4.00;;
9447;SDS011;4762;48.128;11.376;2023-11-18T06:03:08;5.37;;;3.23;;
9447;SDS011;4762;48.128;11.376;2023-11-18T06:05:10;4.80;;;3.80;;
9447;SDS011;4762;48.128;11.376;2023-11-18T06:07:13;6.30;;;4.37;;
9447;SDS011;4762;48.128;11.376;2023-11-18T06:09:15;8.50;;;4.03;;
9447;SDS011;4762;48.128;11.376;2023-11-18T06:11:17;6.70;;;3.73;;
9447;SDS011;4762;48.128;11.376;2023-11-18T06:13:19;5.33;;;3.10;;
9447;SDS011;4762;48.128;11.376;2023-11-18T06:15:21;9.83;;;3.53;;
9447;SDS011;4762;48.128;11.376;2023-11-18T06:17:24;5.33;;;3.60;;
9447;SDS011;4762;48.128;11.376;2023-11-18T06:19:26;6.93;;;2.97;;
9447;SDS011;4762;48.128;11.376;2023-11-18T06:21:28;4.53;;;3.13;;
9447;SDS011;4762;48.128;11.376;2023-11-18T06:23:30;5.60;;;4.33;;
9447;SDS011;4762;48.128;11.376;2023-11-18T06:25:32;3.90;;;3.00;;
9447;SDS011;4762;48.128;11.376;2023-11-18T06:27:35;4.20;;;3.17;;
9447;SDS011;4762;48.128;11.376;2023-11-18T06:29:37;4.83;;;3.70;;
9447;SDS011;4762;48.128;11.376;2023-11-18T06:31:39;2.97;;;2.40;;
9447;SDS011;4762;48.128;11.376;2023-11-18T06:33:42;5.03;;;3.17;;
9447;SDS011;4762;48.128;11.376;2023-11-18T06:35:44;3.67;;;3.27;;
9447;SDS011;4762;48.128;11.376;2023-11-18T06:37:46;4.70;;;3.43;;
9447;SDS011;4762;48.128;11.376;2023-11-18T06:39:49;4.53;;;3.20;;
9447;SDS011;4762;48.128;11.376;2023-11-18T06:41:51;6.50;;;3.43;;
9447;SDS011;4762;48.128;11.376;2023-11-18T06:43:53;6.23;;;3.63;;
9447;SDS011;4762;48.128;11.376;2023-11-18T06:45:58;4.87;;;3.97;;
9447;SDS011;4762;48.128;11.376;2023-11-18T06:48:00;5.63;;;4.47;;
9447;SDS011;4762;48.128;11.376;2023-11-18T06:50:02;6.07;;;3.77;;
9447;SDS011;4762;48.128;11.376;2023-11-18T06:52:05;5.27;;;3.70;;
9447;SDS011;4762;48.128;11.376;2023-11-18T06:54:07;5.40;;;3.50;;
9447;SDS011;4762;48.128;11.376;2023-11-18T06:56:10;6.17;;;4.00;;
9447;SDS011;4762;48.128;11.376;2023-11-18T06:58:12;4.30;;;3.57;;
9447;SDS011;4762;48.128;11.376;2023-11-18T07:00:14;4.27;;;3.20;;
9447;SDS011;4762;48.128;11.376;2023-11-18T07:02:17;6.57;;;4.50;;
9447;SDS011;4762;48.128;11.376;2023-11-18T07:04:19;6.03;;;3.77;;
9447;SDS011;4762;48.128;11.376;2023-11-18T07:06:21;4.07;;;3.57;;
9447;SDS011;4762;48.128;11.376;2023-11-18T07:08:23;4.13;;;3.73;;
9447;SDS011;4762;48.128;11.376;2023-11-18T07:10:25;4.57;;;3.97;;
9447;SDS011;4762;48.128;11.376;2023-11-18T07:12:28;5.27;;;3.50;;
9447;SDS011;4762;48.128;11.376;2023-11-18T07:14:30;6.90;;;4.40;;
9447;SDS011;4762;48.128;11.376;2023-11-18T07:16:32;4.00;;;3.47;;
9447;SDS011;4762;48.128;11.376;2023-11-18T07:18:35;5.03;;;3.70;;
9447;SDS011;4762;48.128;11.376;2023-11-18T07:20:36;5.23;;;3.93;;
9447;SDS011;4762;48.128;11.376;2023-11-18T07:22:39;4.27;;;3.83;;
9447;SDS011;4762;48.128;11.376;2023-11-18T07:24:41;4.27;;;3.00;;
9447;SDS011;4762;48.128;11.376;2023-11-18T07:26:44;4.13;;;3.47;;
9447;SDS011;4762;48.128;11.376;2023-11-18T07:28:45;5.30;;;3.60;;
9447;SDS011;4762;48.128;11.376;2023-11-18T07:30:47;5.67;;;3.80;;
9447;SDS011;4762;48.128;11.376;2023-11-18T07:32:50;4.70;;;3.20;;
9447;SDS011;4762;48.128;11.376;2023-11-18T07:34:53;6.10;;;4.27;;
9447;SDS011;4762;48.128;11.376;2023-11-18T07:36:55;8.97;;;4.70;;
9447;SDS011;4762;48.128;11.376;2023-11-18T07:38:57;5.30;;;3.33;;
9447;SDS011;4762;48.128;11.376;2023-11-18T07:40:59;5.43;;;3.10;;
9447;SDS011;4762;48.128;11.376;2023-11-18T07:43:01;4.33;;;3.43;;
9447;SDS011;4762;48.128;11.376;2023-11-18T07:45:04;9.10;;;3.80;;
9447;SDS011;4762;48.128;11.376;2023-11-18T07:47:07;4.97;;;3.87;;
9447;SDS011;4762;48.128;11.376;2023-11-18T07:49:09;8.00;;;4.20;;
9447;SDS011;4762;48.128;11.376;2023-11-18T07:51:11;4.80;;;3.73;;
9447;SDS011;4762;48.128;11.376;2023-11-18T07:53:14;5.50;;;3.33;;
9447;SDS011;4762;48.128;11.376;2023-11-18T07:55:16;9.10;;;4.10;;
9447;SDS011;4762;48.128;11.376;2023-11-18T07:57:18;5.97;;;4.00;;
9447;SDS011;4762;48.128;11.376;2023-11-18T07:59:21;4.80;;;3.43;;
9447;SDS011;4762;48.128;11.376;2023-11-18T08:01:23;5.13;;;3.77;;
9447;SDS011;4762;48.128;11.376;2023-11-18T08:03:25;5.30;;;3.23;;
9447;SDS011;4762;48.128;11.376;2023-11-18T08:05:27;4.07;;;3.67;;
9447;SDS011;4762;48.128;11.376;2023-11-18T08:07:29;5.63;;;3.70;;
9447;SDS011;4762;48.128;11.376;2023-11-18T08:09:32;4.90;;;3.93;;
9447;SDS011;4762;48.128;11.376;2023-11-18T08:11:34;5.50;;;3.77;;
9447;SDS011;4762;48.128;11.376;2023-11-18T08:13:36;4.80;;;3.40;;
9447;SDS011;4762;48.128;11.376;2023-11-18T08:15:39;5.07;;;3.03;;
9447;SDS011;4762;48.128;11.376;2023-11-18T08:17:41;4.30;;;2.90;;
9447;SDS011;4762;48.128;11.376;2023-11-18T08:19:44;3.53;;;2.90;;
9447;SDS011;4762;48.128;11.376;2023-11-18T08:21:46;3.10;;;2.80;;
9447;SDS011;4762;48.128;11.376;2023-11-18T08:23:48;7.00;;;4.00;;
9447;SDS011;4762;48.128;11.376;2023-11-18T08:25:50;5.50;;;3.17;;
9447;SDS011;4762;48.128;11.376;2023-11-18T08:27:52;4.03;;;2.97;;
9447;SDS011;4762;48.128;11.376;2023-11-18T08:29:55;3.17;;;2.83;;
9447;SDS011;4762;48.128;11.376;2023-11-18T08:31:57;5.93;;;3.20;;
9447;SDS011;4762;48.128;11.376;2023-11-18T08:33:59;6.60;;;3.40;;
9447;SDS011;4762;48.128;11.376;2023-11-18T08:36:01;5.43;;;3.20;;
9447;SDS011;4762;48.128;11.376;2023-11-18T08:38:04;3.00;;;2.63;;
9447;SDS011;4762;48.128;11.376;2023-11-18T08:40:06;6.60;;;3.17;;
9447;SDS011;4762;48.128;11.376;2023-11-18T08:42:09;4.73;;;3.30;;
9447;SDS011;4762;48.128;11.376;2023-11-18T08:44:11;4.57;;;2.50;;
9447;SDS011;4762;48.128;11.376;2023-11-18T08:46:14;13.27;;;3.03;;
9447;SDS011;4762;48.128;11.376;2023-11-18T08:48:16;4.23;;;2.93;;
9447;SDS011;4762;48.128;11.376;2023-11-18T08:50:19;3.00;;;2.37;;
9447;SDS011;4762;48.128;11.376;2023-11-18T08:52:21;5.23;;;3.10;;
9447;SDS011;4762;48.128;11.376;2023-11-18T08:54:23;3.90;;;2.97;;
9447;SDS011;4762;48.128;11.376;2023-11-18T08:56:25;2.67;;;2.10;;
9447;SDS011;4762;48.128;11.376;2023-11-18T08:58:27;3.20;;;2.10;;
9447;SDS011;4762;48.128;11.376;2023-11-18T09:00:30;6.80;;;3.20;;
9447;SDS011;4762;48.128;11.376;2023-11-18T09:02:37;3.17;;;2.87;;
9447;SDS011;4762;48.128;11.376;2023-11-18T09:04:40;3.90;;;3.30;;
9447;SDS011;4762;48.128;11.376;2023-11-18T09:06:42;4.40;;;3.10;;
9447;SDS011;4762;48.128;11.376;2023-11-18T09:08:45;3.40;;;2.30;;
9447;SDS011;4762;48.128;11.376;2023-11-18T09:10:46;2.80;;;2.47;;
9447;SDS011;4762;48.128;11.376;2023-11-18T09:12:48;3.37;;;2.17;;
9447;SDS011;4762;48.128;11.376;2023-11-18T09:14:51;3.93;;;2.63;;
9447;SDS011;4762;48.128;11.376;2023-11-18T09:16:53;2.37;;;2.17;;
9447;SDS011;4762;48.128;11.376;2023-11-18T09:18:56;2.30;;;1.93;;
9447;SDS011;4762;48.128;11.376;2023-11-18T09:20:58;4.67;;;2.33;;
9447;SDS011;4762;48.128;11.376;2023-11-18T09:23:00;3.40;;;2.40;;
9447;SDS011;4762;48.128;11.376;2023-11-18T09:25:02;1.80;;;1.47;;
9447;SDS011;4762;48.128;11.376;2023-11-18T09:27:05;2.80;;;1.90;;
9447;SDS011;4762;48.128;11.376;2023-11-18T09:29:07;5.60;;;2.63;;
9447;SDS011;4762;48.128;11.376;2023-11-18T09:31:09;9.10;;;2.80;;
9447;SDS011;4762;48.128;11.376;2023-11-18T09:33:12;4.70;;;2.33;;
9447;SDS011;4762;48.128;11.376;2023-11-18T09:35:15;4.10;;;3.60;;
9447;SDS011;4762;48.128;11.376;2023-11-18T09:37:17;3.23;;;2.20;;
9447;SDS011;4762;48.128;11.376;2023-11-18T09:39:19;2.03;;;1.80;;
9447;SDS011;4762;48.128;11.376;2023-11-18T09:41:27;4.60;;;2.50;;
9447;SDS011;4762;48.128;11.376;2023-11-18T09:43:30;4.10;;;2.30;;
9447;SDS011;4762;48.128;11.376;2023-11-18T09:45:34;4.30;;;2.00;;
9447;SDS011;4762;48.128;11.376;2023-11-18T09:47:36;2.03;;;1.50;;
9447;SDS011;4762;48.128;11.376;2023-11-18T09:49:40;2.27;;;1.57;;
9447;SDS011;4762;48.128;11.376;2023-11-18T09:51:42;6.30;;;3.17;;
9447;SDS011;4762;48.128;11.376;2023-11-18T09:53:44;1.70;;;1.40;;
9447;SDS011;4762;48.128;11.376;2023-11-18T09:55:50;2.20;;;2.00;;
9447;SDS011;4762;48.128;11.376;2023-11-18T09:57:51;2.80;;;1.83;;
9447;SDS011;4762;48.128;11.376;2023-11-18T09:59:56;1.90;;;1.57;;
9447;SDS011;4762;48.128;11.376;2023-11-18T10:01:59;1.53;;;1.20;;
9447;SDS011;4762;48.128;11.376;2023-11-18T10:04:02;2.27;;;1.63;;
9447;SDS011;4762;48.128;11.376;2023-11-18T10:06:04;3.00;;;2.07;;
9447;SDS011;4762;48.128;11.376;2023-11-18T10:08:07;2.57;;;1.50;;
9447;SDS011;4762;48.128;11.376;2023-11-18T10:10:09;2.87;;;1.83;;
9447;SDS011;4762;48.128;11.376;2023-11-18T10:12:18;5.03;;;1.53;;
9447;SDS011;4762;48.128;11.376;2023-11-18T10:14:20;2.30;;;1.67;;
9447;SDS011;4762;48.128;11.376;2023-11-18T10:16:22;1.60;;;1.00;;
9447;SDS011;4762;48.128;11.376;2023-11-18T10:18:24;4.07;;;1.50;;
9447;SDS011;4762;48.128;11.376;2023-11-18T10:22:44;1.90;;;1.20;;
9447;SDS011;4762;48.128;11.376;2023-11-18T10:24:46;1.73;;;1.07;;
9447;SDS011;4762;48.128;11.376;2023-11-18T10:26:54;2.50;;;1.63;;
9447;SDS011;4762;48.128;11.376;2023-11-18T10:28:59;1.90;;;1.30;;
9447;SDS011;4762;48.128;11.376;2023-11-18T10:31:00;3.17;;;1.50;;
9447;SDS011;4762;48.128;11.376;2023-11-18T10:33:05;2.03;;;1.20;;
9447;SDS011;4762;48.128;11.376;2023-11-18T10:35:08;2.00;;;1.27;;
9447;SDS011;4762;48.128;11.376;2023-11-18T10:37:10;2.33;;;1.33;;
9447;SDS011;4762;48.128;11.376;2023-11-18T10:39:13;2.00;;;1.40;;
9447;SDS011;4762;48.128;11.376;2023-11-18T10:41:15;1.80;;;1.20;;
9447;SDS011;4762;48.128;11.376;2023-11-18T10:43:21;1.70;;;1.33;;
9447;SDS011;4762;48.128;11.376;2023-11-18T10:45:25;2.03;;;1.20;;
9447;SDS011;4762;48.128;11.376;2023-11-18T10:47:28;1.90;;;1.27;;
9447;SDS011;4762;48.128;11.376;2023-11-18T10:49:31;3.00;;;1.30;;
9447;SDS011;4762;48.128;11.376;2023-11-18T10:51:35;3.03;;;1.80;;
9447;SDS011;4762;48.128;11.376;2023-11-18T10:53:38;1.70;;;1.10;;
9447;SDS011;4762;48.128;11.376;2023-11-18T10:55:43;2.40;;;1.50;;
9447;SDS011;4762;48.128;11.376;2023-11-18T10:57:46;2.97;;;1.83;;
9447;SDS011;4762;48.128;11.376;2023-11-18T11:02:18;1.40;;;0.97;;
9447;SDS011;4762;48.128;11.376;2023-11-18T11:04:19;2.53;;;1.20;;
9447;SDS011;4762;48.128;11.376;2023-11-18T11:06:23;3.13;;;1.50;;
9447;SDS011;4762;48.128;11.376;2023-11-18T11:08:25;1.70;;;1.10;;
9447;SDS011;4762;48.128;11.376;2023-11-18T11:10:27;1.50;;;0.97;;
9447;SDS011;4762;48.128;11.376;2023-11-18T11:12:31;1.50;;;1.00;;
9447;SDS011;4762;48.128;11.376;2023-11-18T11:14:49;2.73;;;1.30;;
9447;SDS011;4762;48.128;11.376;2023-11-18T11:16:45;1.93;;;1.23;;
9447;SDS011;4762;48.128;11.376;2023-11-18T11:18:47;2.33;;;1.37;;
9447;SDS011;4762;48.128;11.376;2023-11-18T11:20:57;2.03;;;1.17;;
9447;SDS011;4762;48.128;11.376;2023-11-18T11:23:05;1.60;;;1.20;;
9447;SDS011;4762;48.128;11.376;2023-11-18T11:25:10;3.67;;;1.13;;
9447;SDS011;4762;48.128;11.376;2023-11-18T11:27:13;1.10;;;0.50;;
9447;SDS011;4762;48.128;11.376;2023-11-18T11:29:24;2.20;;;1.07;;
9447;SDS011;4762;48.128;11.376;2023-11-18T11:31:26;1.43;;;0.93;;
9447;SDS011;4762;48.128;11.376;2023-11-18T11:33:27;1.73;;;1.03;;
9447;SDS011;4762;48.128;11.376;2023-11-18T11:35:30;2.90;;;1.20;;
9447;SDS011;4762;48.128;11.376;2023-11-18T11:37:35;1.40;;;0.80;;
9447;SDS011;4762;48.128;11.376;2023-11-18T11:39:37;2.50;;;1.10;;
9447;SDS011;4762;48.128;11.376;2023-11-18T11:41:40;5.03;;;1.37;;
9447;SDS011;4762;48.128;11.376;2023-11-18T11:43:52;1.20;;;0.90;;
9447;SDS011;4762;48.128;11.376;2023-11-18T11:45:56;1.20;;;0.87;;
9447;SDS011;4762;48.128;11.376;2023-11-18T11:47:59;2.00;;;0.90;;
9447;SDS011;4762;48.128;11.376;2023-11-18T11:50:13;2.30;;;0.90;;
9447;SDS011;4762;48.128;11.376;2023-11-18T11:52:18;1.73;;;0.97;;
9447;SDS011;4762;48.128;11.376;2023-11-18T11:54:21;2.30;;;1.30;;
9447;SDS011;4762;48.128;11.376;2023-11-18T11:56:37;2.17;;;1.10;;
9447;SDS011;4762;48.128;11.376;2023-11-18T11:58:35;1.40;;;0.80;;
9447;SDS011;4762;48.128;11.376;2023-11-18T12:00:38;1.50;;;0.90;;
9447;SDS011;4762;48.128;11.376;2023-11-18T12:02:48;1.10;;;0.53;;
9447;SDS011;4762;48.128;11.376;2023-11-18T12:04:50;1.20;;;0.70;;
9447;SDS011;4762;48.128;11.376;2023-11-18T12:06:53;1.80;;;0.90;;
9447;SDS011;4762;48.128;11.376;2023-11-18T12:08:56;3.73;;;1.57;;
9447;SDS011;4762;48.128;11.376;2023-11-18T12:10:58;1.60;;;0.90;;
9447;SDS011;4762;48.128;11.376;2023-11-18T12:15:11;2.00;;;1.00;;
9447;SDS011;4762;48.128;11.376;2023-11-18T12:17:13;2.60;;;1.30;;
9447;SDS011;4762;48.128;11.376;2023-11-18T12:22:03;2.33;;;1.00;;
9447;SDS011;4762;48.128;11.376;2023-11-18T12:26:37;1.60;;;0.90;;
9447;SDS011;4762;48.128;11.376;2023-11-18T12:28:08;1.43;;;0.73;;
9447;SDS011;4762;48.128;11.376;2023-11-18T12:30:45;1.60;;;1.07;;
9447;SDS011;4762;48.128;11.376;2023-11-18T12:35:15;1.40;;;0.80;;
9447;SDS011;4762;48.128;11.376;2023-11-18T12:39:35;2.63;;;1.30;;
9447;SDS011;4762;48.128;11.376;2023-11-18T12:41:36;3.50;;;1.63;;
9447;SDS011;4762;48.128;11.376;2023-11-18T12:45:56;2.27;;;0.90;;
9447;SDS011;4762;48.128;11.376;2023-11-18T12:47:54;2.47;;;1.03;;
9447;SDS011;4762;48.128;11.376;2023-11-18T12:49:56;1.70;;;0.90;;